THY45M LTFM-WMKK
Flight info
| Callsign | THY45M |
|---|---|
| Flight time | N/A |
| Altitude | 37000 |
| Route | VICEN UT380 ASMAP UL333 LATGA UT363 GURBU UA4 ERZ UB374 INDUR DCT MATAL T916 SUBUT T923 ERLEV M11 RODAR A909 LEMOD N644 REGET G325 ZB G202 RK P628 IBANI L510 GURVI T1 BBS L759 PUT B579 VPL Y509 ANGUN Y508 NIREN NIREN1K |
| Aircraft | A359/H-SDE2E3GHIJ3J4J5LM1ORWXY/LB1D1 |
Departure
| Time | N/A |
|---|---|
| Airport | İstanbul Airport (LTFM) |
Arrival
| Time | 2026-05-07 08:36 |
|---|---|
| Airport | Kuala Lumpur International Airport (WMKK) |
| Time | Latitude | Longitude | Altitude | Speed | Heading |
|---|---|---|---|---|---|
| 2026-05-07 07:18 | 8.36801 | 98.07383 | 36822 ft | 495 kts | 136° |
| 2026-05-07 07:19 | 8.31741 | 98.12051 | 36820 ft | 495 kts | 136° |
| 2026-05-07 07:19 | 8.26653 | 98.16746 | 36813 ft | 495 kts | 136° |
| 2026-05-07 07:20 | 8.21581 | 98.21425 | 36805 ft | 494 kts | 136° |
| 2026-05-07 07:20 | 8.16503 | 98.26107 | 36801 ft | 493 kts | 136° |
| 2026-05-07 07:21 | 8.11434 | 98.30781 | 36803 ft | 493 kts | 136° |
| 2026-05-07 07:21 | 8.06210 | 98.35295 | 36799 ft | 494 kts | 140° |
| 2026-05-07 07:22 | 8.00877 | 98.39578 | 36803 ft | 493 kts | 140° |
| 2026-05-07 07:22 | 7.95508 | 98.43912 | 36812 ft | 494 kts | 140° |
| 2026-05-07 07:23 | 7.90169 | 98.48281 | 36815 ft | 495 kts | 140° |
| 2026-05-07 07:23 | 7.84832 | 98.52672 | 36811 ft | 495 kts | 140° |
| 2026-05-07 07:24 | 7.79496 | 98.57064 | 36811 ft | 494 kts | 140° |
| 2026-05-07 07:24 | 7.74172 | 98.61443 | 36813 ft | 494 kts | 140° |
| 2026-05-07 07:25 | 7.66177 | 98.68021 | 36816 ft | 494 kts | 140° |
| 2026-05-07 07:26 | 7.60869 | 98.72383 | 36799 ft | 495 kts | 140° |
| 2026-05-07 07:26 | 7.55505 | 98.76791 | 36816 ft | 497 kts | 140° |
| 2026-05-07 07:27 | 7.50148 | 98.81192 | 36819 ft | 497 kts | 140° |
| 2026-05-07 07:27 | 7.44778 | 98.85606 | 36820 ft | 498 kts | 140° |
| 2026-05-07 07:28 | 7.39427 | 98.89996 | 36816 ft | 499 kts | 140° |
| 2026-05-07 07:28 | 7.34033 | 98.94413 | 36817 ft | 499 kts | 140° |
| 2026-05-07 07:29 | 7.28629 | 98.98840 | 36816 ft | 499 kts | 140° |
| 2026-05-07 07:29 | 7.23265 | 99.03233 | 36817 ft | 499 kts | 140° |
| 2026-05-07 07:30 | 7.17880 | 99.07645 | 36818 ft | 499 kts | 140° |
| 2026-05-07 07:30 | 7.12492 | 99.12058 | 36820 ft | 499 kts | 140° |
| 2026-05-07 07:31 | 7.07105 | 99.16468 | 36816 ft | 499 kts | 140° |
| 2026-05-07 07:31 | 7.01740 | 99.20858 | 36796 ft | 499 kts | 140° |
| 2026-05-07 07:32 | 6.96349 | 99.25267 | 36811 ft | 499 kts | 140° |
| 2026-05-07 07:32 | 6.90940 | 99.29690 | 36811 ft | 499 kts | 140° |
| 2026-05-07 07:33 | 6.85581 | 99.34072 | 36803 ft | 499 kts | 140° |
| 2026-05-07 07:33 | 6.80188 | 99.38479 | 36817 ft | 499 kts | 140° |
| 2026-05-07 07:34 | 6.74796 | 99.42884 | 36816 ft | 499 kts | 140° |
| 2026-05-07 07:34 | 6.69413 | 99.47281 | 36817 ft | 498 kts | 140° |
| 2026-05-07 07:35 | 6.64024 | 99.51680 | 36806 ft | 499 kts | 140° |
| 2026-05-07 07:35 | 6.58632 | 99.56077 | 36820 ft | 499 kts | 140° |
| 2026-05-07 07:36 | 6.53232 | 99.60481 | 36814 ft | 499 kts | 140° |
| 2026-05-07 07:36 | 6.47839 | 99.64880 | 36807 ft | 499 kts | 140° |
| 2026-05-07 07:37 | 6.42456 | 99.69212 | 36789 ft | 499 kts | 141° |
| 2026-05-07 07:37 | 6.36869 | 99.73362 | 36803 ft | 500 kts | 147° |
| 2026-05-07 07:38 | 6.30514 | 99.76186 | 36823 ft | 500 kts | 160° |
| 2026-05-07 07:38 | 6.23899 | 99.78334 | 36822 ft | 500 kts | 161° |
| 2026-05-07 07:39 | 6.17235 | 99.80379 | 36820 ft | 500 kts | 162° |
| 2026-05-07 07:39 | 6.10625 | 99.82418 | 36810 ft | 500 kts | 161° |
| 2026-05-07 07:40 | 6.03984 | 99.84488 | 36802 ft | 499 kts | 161° |
| 2026-05-07 07:40 | 5.97340 | 99.86569 | 36801 ft | 499 kts | 161° |
| 2026-05-07 07:41 | 5.90711 | 99.88646 | 36799 ft | 499 kts | 161° |
| 2026-05-07 07:41 | 5.84127 | 99.90716 | 36799 ft | 499 kts | 161° |
| 2026-05-07 07:42 | 5.77485 | 99.92791 | 36799 ft | 499 kts | 161° |
| 2026-05-07 07:42 | 5.70885 | 99.94852 | 36801 ft | 504 kts | 161° |
| 2026-05-07 07:43 | 5.64212 | 99.96938 | 36801 ft | 500 kts | 161° |
| 2026-05-07 07:43 | 5.57577 | 99.99013 | 36800 ft | 500 kts | 161° |
| 2026-05-07 07:44 | 5.50932 | 100.01090 | 36797 ft | 500 kts | 161° |
| 2026-05-07 07:44 | 5.44289 | 100.03166 | 36793 ft | 500 kts | 161° |
| 2026-05-07 07:45 | 5.37679 | 100.05232 | 36790 ft | 500 kts | 161° |
| 2026-05-07 07:45 | 5.31031 | 100.07309 | 36788 ft | 500 kts | 161° |
| 2026-05-07 07:46 | 5.24380 | 100.09386 | 36787 ft | 500 kts | 161° |
| 2026-05-07 07:46 | 5.17736 | 100.11460 | 36788 ft | 499 kts | 160° |
| 2026-05-07 07:47 | 5.12220 | 100.13183 | 36769 ft | 499 kts | 160° |
| 2026-05-07 07:47 | 5.05542 | 100.15133 | 36791 ft | 500 kts | 162° |
| 2026-05-07 07:48 | 4.97762 | 100.17311 | 36786 ft | 500 kts | 162° |
| 2026-05-07 07:48 | 4.92167 | 100.18893 | 36800 ft | 500 kts | 162° |
| 2026-05-07 07:49 | 4.85510 | 100.20799 | 36778 ft | 499 kts | 162° |
| 2026-05-07 07:49 | 4.78837 | 100.22710 | 36778 ft | 498 kts | 162° |
| 2026-05-07 07:50 | 4.72169 | 100.24615 | 36783 ft | 498 kts | 162° |
| 2026-05-07 07:50 | 4.65506 | 100.26519 | 36787 ft | 498 kts | 162° |
| 2026-05-07 07:51 | 4.58881 | 100.28414 | 36796 ft | 498 kts | 162° |
| 2026-05-07 07:51 | 4.52215 | 100.30321 | 36797 ft | 498 kts | 162° |
| 2026-05-07 07:52 | 4.45541 | 100.32229 | 36789 ft | 498 kts | 162° |
| 2026-05-07 07:52 | 4.38874 | 100.34135 | 36787 ft | 498 kts | 162° |
| 2026-05-07 07:53 | 4.32262 | 100.36025 | 36782 ft | 497 kts | 162° |
| 2026-05-07 07:53 | 4.25538 | 100.37743 | 36796 ft | 499 kts | 166° |
| 2026-05-07 07:54 | 4.18757 | 100.39217 | 36786 ft | 498 kts | 166° |
| 2026-05-07 07:54 | 4.11987 | 100.40739 | 36781 ft | 498 kts | 165° |
| 2026-05-07 07:55 | 4.05262 | 100.42273 | 36781 ft | 498 kts | 165° |
| 2026-05-07 07:55 | 3.98502 | 100.43820 | 36780 ft | 498 kts | 165° |
| 2026-05-07 07:56 | 3.91759 | 100.45364 | 36516 ft | 497 kts | 165° |
| 2026-05-07 07:56 | 3.89451 | 100.45893 | 36330 ft | 497 kts | 165° |
| 2026-05-07 07:57 | 3.86094 | 100.46663 | 35745 ft | 494 kts | 165° |
| 2026-05-07 07:57 | 3.82746 | 100.47431 | 35051 ft | 494 kts | 165° |
| 2026-05-07 07:57 | 3.79375 | 100.48204 | 34285 ft | 496 kts | 165° |
| 2026-05-07 07:57 | 3.76002 | 100.48977 | 33408 ft | 499 kts | 165° |
| 2026-05-07 07:58 | 3.72607 | 100.49756 | 32516 ft | 502 kts | 165° |
| 2026-05-07 07:58 | 3.69198 | 100.50537 | 31647 ft | 503 kts | 165° |
| 2026-05-07 07:58 | 3.65774 | 100.51321 | 30747 ft | 506 kts | 165° |
| 2026-05-07 07:58 | 3.62334 | 100.52108 | 29808 ft | 509 kts | 165° |
| 2026-05-07 07:59 | 3.58871 | 100.52901 | 28718 ft | 511 kts | 165° |
| 2026-05-07 07:59 | 3.55454 | 100.53851 | 27949 ft | 506 kts | 158° |
| 2026-05-07 07:59 | 3.52361 | 100.55372 | 27252 ft | 498 kts | 145° |
| 2026-05-07 07:59 | 3.49697 | 100.57547 | 26607 ft | 490 kts | 131° |
| 2026-05-07 08:00 | 3.47657 | 100.60216 | 26455 ft | 480 kts | 120° |
| 2026-05-07 08:00 | 3.46211 | 100.63217 | 26260 ft | 478 kts | 110° |
| 2026-05-07 08:00 | 3.44936 | 100.66291 | 26056 ft | 479 kts | 112° |
| 2026-05-07 08:00 | 3.43597 | 100.69341 | 25842 ft | 478 kts | 112° |
| 2026-05-07 08:01 | 3.42243 | 100.72377 | 25626 ft | 476 kts | 112° |
| 2026-05-07 08:01 | 3.40890 | 100.75394 | 25406 ft | 475 kts | 113° |
| 2026-05-07 08:01 | 3.39537 | 100.78405 | 25198 ft | 473 kts | 113° |
| 2026-05-07 08:01 | 3.38185 | 100.81411 | 24973 ft | 472 kts | 113° |
| 2026-05-07 08:02 | 3.36855 | 100.84365 | 24764 ft | 470 kts | 113° |
| 2026-05-07 08:02 | 3.35525 | 100.87350 | 24558 ft | 469 kts | 111° |
| 2026-05-07 08:02 | 3.34570 | 100.90448 | 24342 ft | 465 kts | 99° |
| 2026-05-07 08:02 | 3.34171 | 100.93656 | 24117 ft | 464 kts | 94° |
| 2026-05-07 08:03 | 3.33899 | 100.96870 | 23917 ft | 463 kts | 94° |
| 2026-05-07 08:03 | 3.33638 | 101.00080 | 23713 ft | 462 kts | 94° |
| 2026-05-07 08:03 | 3.33372 | 101.03282 | 23497 ft | 460 kts | 94° |
| 2026-05-07 08:03 | 3.33103 | 101.06471 | 23281 ft | 459 kts | 94° |
| 2026-05-07 08:04 | 3.32832 | 101.09652 | 23047 ft | 457 kts | 94° |
| 2026-05-07 08:04 | 3.32563 | 101.12784 | 22830 ft | 456 kts | 94° |
| 2026-05-07 08:04 | 3.32292 | 101.15936 | 22632 ft | 454 kts | 94° |
| 2026-05-07 08:04 | 3.32021 | 101.19078 | 22427 ft | 452 kts | 94° |
| 2026-05-07 08:05 | 3.31751 | 101.22207 | 22226 ft | 451 kts | 94° |
| 2026-05-07 08:05 | 3.31481 | 101.25326 | 22021 ft | 449 kts | 94° |
| 2026-05-07 08:05 | 3.31212 | 101.28441 | 21815 ft | 447 kts | 94° |
| 2026-05-07 08:05 | 3.30944 | 101.31536 | 21610 ft | 446 kts | 94° |
| 2026-05-07 08:06 | 3.30678 | 101.34617 | 21406 ft | 443 kts | 94° |
| 2026-05-07 08:06 | 3.30412 | 101.37688 | 21207 ft | 442 kts | 94° |
| 2026-05-07 08:06 | 3.30147 | 101.40744 | 21006 ft | 440 kts | 94° |
| 2026-05-07 08:06 | 3.29883 | 101.43793 | 20808 ft | 439 kts | 94° |
| 2026-05-07 08:07 | 3.29623 | 101.46792 | 20614 ft | 437 kts | 94° |
| 2026-05-07 08:07 | 3.29361 | 101.49820 | 20411 ft | 436 kts | 94° |
| 2026-05-07 08:07 | 3.29099 | 101.52838 | 20217 ft | 434 kts | 94° |
| 2026-05-07 08:07 | 3.28838 | 101.55846 | 20020 ft | 433 kts | 94° |
| 2026-05-07 08:08 | 3.28578 | 101.58842 | 19823 ft | 432 kts | 94° |
| 2026-05-07 08:08 | 3.28318 | 101.61840 | 19626 ft | 430 kts | 94° |
| 2026-05-07 08:08 | 3.28058 | 101.64828 | 19431 ft | 429 kts | 94° |
| 2026-05-07 08:08 | 3.27799 | 101.67803 | 19239 ft | 428 kts | 94° |
| 2026-05-07 08:09 | 3.27542 | 101.70764 | 19047 ft | 427 kts | 94° |
| 2026-05-07 08:09 | 3.27105 | 101.73700 | 18841 ft | 427 kts | 103° |
| 2026-05-07 08:09 | 3.25996 | 101.76419 | 18670 ft | 429 kts | 119° |
| 2026-05-07 08:09 | 3.24130 | 101.78750 | 18466 ft | 431 kts | 133° |
| 2026-05-07 08:10 | 3.21910 | 101.80761 | 18280 ft | 430 kts | 136° |
| 2026-05-07 08:10 | 3.19648 | 101.82713 | 18081 ft | 429 kts | 137° |
| 2026-05-07 08:10 | 3.17395 | 101.84657 | 17868 ft | 428 kts | 136° |
| 2026-05-07 08:10 | 3.15907 | 101.85945 | 17732 ft | 427 kts | 136° |
| 2026-05-07 08:12 | 3.14288 | 101.87352 | 17594 ft | 426 kts | 136° |
| 2026-05-07 08:13 | 3.12054 | 101.89296 | 17411 ft | 424 kts | 136° |
| 2026-05-07 08:13 | 3.09832 | 101.91232 | 17202 ft | 423 kts | 136° |
| 2026-05-07 08:13 | 3.07616 | 101.93165 | 17020 ft | 421 kts | 136° |
| 2026-05-07 08:13 | 3.05440 | 101.95065 | 16828 ft | 420 kts | 136° |
| 2026-05-07 08:14 | 3.03236 | 101.96989 | 16651 ft | 419 kts | 136° |
| 2026-05-07 08:14 | 3.01048 | 101.98901 | 16440 ft | 418 kts | 136° |
| 2026-05-07 08:14 | 2.98863 | 102.00811 | 16263 ft | 416 kts | 136° |
| 2026-05-07 08:14 | 2.96681 | 102.02718 | 16066 ft | 416 kts | 136° |
| 2026-05-07 08:15 | 2.94505 | 102.04619 | 15878 ft | 415 kts | 136° |
| 2026-05-07 08:15 | 2.92333 | 102.06516 | 15687 ft | 414 kts | 136° |
| 2026-05-07 08:15 | 2.90166 | 102.08409 | 15505 ft | 412 kts | 136° |
| 2026-05-07 08:15 | 2.88010 | 102.10292 | 15326 ft | 411 kts | 136° |
| 2026-05-07 08:16 | 2.85858 | 102.12171 | 15136 ft | 410 kts | 136° |
| 2026-05-07 08:16 | 2.83708 | 102.14049 | 14946 ft | 409 kts | 136° |
| 2026-05-07 08:16 | 2.81567 | 102.15919 | 14756 ft | 408 kts | 136° |
| 2026-05-07 08:16 | 2.79432 | 102.17782 | 14577 ft | 407 kts | 136° |
| 2026-05-07 08:17 | 2.77330 | 102.19617 | 14405 ft | 405 kts | 136° |
| 2026-05-07 08:17 | 2.75207 | 102.21470 | 14203 ft | 404 kts | 136° |
| 2026-05-07 08:17 | 2.73087 | 102.23322 | 14028 ft | 403 kts | 136° |
| 2026-05-07 08:17 | 2.70970 | 102.25149 | 13841 ft | 402 kts | 138° |
| 2026-05-07 08:18 | 2.68621 | 102.26696 | 13655 ft | 404 kts | 149° |
| 2026-05-07 08:18 | 2.66124 | 102.27976 | 13460 ft | 403 kts | 151° |
| 2026-05-07 08:18 | 2.63610 | 102.29216 | 13267 ft | 402 kts | 151° |
| 2026-05-07 08:18 | 2.61106 | 102.30453 | 13087 ft | 401 kts | 151° |
| 2026-05-07 08:19 | 2.58613 | 102.31688 | 12900 ft | 399 kts | 151° |
| 2026-05-07 08:19 | 2.56156 | 102.32909 | 12717 ft | 398 kts | 151° |
| 2026-05-07 08:19 | 2.53709 | 102.34125 | 12571 ft | 385 kts | 151° |
| 2026-05-07 08:19 | 2.51362 | 102.35294 | 12362 ft | 369 kts | 151° |
| 2026-05-07 08:20 | 2.49103 | 102.36419 | 12174 ft | 354 kts | 151° |
| 2026-05-07 08:20 | 2.46947 | 102.37495 | 12056 ft | 338 kts | 150° |
| 2026-05-07 08:20 | 2.44888 | 102.38523 | 11930 ft | 323 kts | 150° |
| 2026-05-07 08:20 | 2.42893 | 102.39458 | 11783 ft | 310 kts | 157° |
| 2026-05-07 08:21 | 2.40802 | 102.39725 | 11650 ft | 301 kts | 185° |
| 2026-05-07 08:21 | 2.38905 | 102.38965 | 11519 ft | 293 kts | 216° |
| 2026-05-07 08:21 | 2.37692 | 102.37413 | 11435 ft | 290 kts | 245° |
| 2026-05-07 08:21 | 2.37234 | 102.35450 | 11394 ft | 291 kts | 259° |
| 2026-05-07 08:22 | 2.36685 | 102.33511 | 11274 ft | 289 kts | 250° |
| 2026-05-07 08:22 | 2.36093 | 102.31591 | 10915 ft | 287 kts | 250° |
| 2026-05-07 08:22 | 2.35461 | 102.29700 | 10560 ft | 287 kts | 250° |
| 2026-05-07 08:22 | 2.34863 | 102.27811 | 10204 ft | 286 kts | 255° |
| 2026-05-07 08:23 | 2.34598 | 102.25807 | 9585 ft | 296 kts | 266° |
| 2026-05-07 08:23 | 2.34650 | 102.23748 | 9042 ft | 300 kts | 274° |
| 2026-05-07 08:23 | 2.34942 | 102.21689 | 8519 ft | 301 kts | 286° |
| 2026-05-07 08:23 | 2.36018 | 102.19926 | 8052 ft | 298 kts | 317° |
| 2026-05-07 08:24 | 2.37795 | 102.18946 | 7633 ft | 292 kts | 347° |
| 2026-05-07 08:24 | 2.39756 | 102.18471 | 7233 ft | 289 kts | 336° |
| 2026-05-07 08:24 | 2.41293 | 102.17214 | 6821 ft | 288 kts | 305° |
| 2026-05-07 08:24 | 2.42053 | 102.15393 | 6511 ft | 283 kts | 278° |
| 2026-05-07 08:25 | 2.41841 | 102.13499 | 6345 ft | 270 kts | 247° |
| 2026-05-07 08:25 | 2.41070 | 102.11832 | 6178 ft | 260 kts | 241° |
| 2026-05-07 08:25 | 2.40271 | 102.10274 | 6050 ft | 249 kts | 241° |
| 2026-05-07 08:25 | 2.39516 | 102.08765 | 6007 ft | 235 kts | 242° |
| 2026-05-07 08:26 | 2.38177 | 102.05994 | 6040 ft | 222 kts | 243° |
| 2026-05-07 08:26 | 2.37736 | 102.04478 | 6022 ft | 232 kts | 265° |
| 2026-05-07 08:26 | 2.37983 | 102.02887 | 6026 ft | 231 kts | 286° |
| 2026-05-07 08:27 | 2.38508 | 102.01371 | 6018 ft | 230 kts | 289° |
| 2026-05-07 08:27 | 2.39062 | 101.99871 | 5949 ft | 229 kts | 289° |
| 2026-05-07 08:27 | 2.39608 | 101.98383 | 5833 ft | 228 kts | 289° |
| 2026-05-07 08:27 | 2.40147 | 101.96893 | 5774 ft | 228 kts | 289° |
| 2026-05-07 08:28 | 2.40870 | 101.95484 | 5728 ft | 229 kts | 309° |
| 2026-05-07 08:28 | 2.42011 | 101.94408 | 5684 ft | 227 kts | 321° |
| 2026-05-07 08:28 | 2.43277 | 101.93452 | 5636 ft | 228 kts | 324° |
| 2026-05-07 08:28 | 2.44581 | 101.92537 | 5581 ft | 229 kts | 325° |
| 2026-05-07 08:29 | 2.45887 | 101.91636 | 5520 ft | 228 kts | 326° |
| 2026-05-07 08:29 | 2.47202 | 101.90750 | 5399 ft | 228 kts | 326° |
| 2026-05-07 08:29 | 2.48530 | 101.89894 | 5372 ft | 221 kts | 329° |
| 2026-05-07 08:29 | 2.49797 | 101.89110 | 5347 ft | 209 kts | 327° |
| 2026-05-07 08:30 | 2.50981 | 101.88307 | 5340 ft | 208 kts | 325° |
| 2026-05-07 08:30 | 2.52170 | 101.87489 | 5251 ft | 206 kts | 326° |
| 2026-05-07 08:30 | 2.53356 | 101.86690 | 5022 ft | 204 kts | 326° |
| 2026-05-07 08:30 | 2.54539 | 101.85894 | 4723 ft | 204 kts | 326° |
| 2026-05-07 08:31 | 2.55721 | 101.85096 | 4405 ft | 206 kts | 326° |
| 2026-05-07 08:31 | 2.56896 | 101.84304 | 4079 ft | 206 kts | 327° |
| 2026-05-07 08:31 | 2.58086 | 101.83503 | 3798 ft | 206 kts | 327° |
| 2026-05-07 08:31 | 2.59274 | 101.82703 | 3559 ft | 203 kts | 328° |
| 2026-05-07 08:32 | 2.60439 | 101.81923 | 3294 ft | 200 kts | 328° |
| 2026-05-07 08:32 | 2.61595 | 101.81143 | 3045 ft | 201 kts | 327° |
| 2026-05-07 08:32 | 2.62735 | 101.80374 | 2777 ft | 199 kts | 327° |
| 2026-05-07 08:32 | 2.63885 | 101.79600 | 2526 ft | 197 kts | 326° |
| 2026-05-07 08:33 | 2.65009 | 101.78844 | 2283 ft | 193 kts | 326° |
| 2026-05-07 08:33 | 2.66108 | 101.78103 | 2033 ft | 188 kts | 325° |
| 2026-05-07 08:33 | 2.67183 | 101.77378 | 1786 ft | 184 kts | 324° |
| 2026-05-07 08:33 | 2.68234 | 101.76669 | 1568 ft | 181 kts | 323° |
| 2026-05-07 08:34 | 2.69276 | 101.75966 | 1346 ft | 180 kts | 322° |
| 2026-05-07 08:34 | 2.70301 | 101.75274 | 1100 ft | 179 kts | 322° |
| 2026-05-07 08:34 | 2.71332 | 101.74579 | 896 ft | 175 kts | 323° |
| 2026-05-07 08:34 | 2.72317 | 101.73916 | 677 ft | 165 kts | 325° |
| 2026-05-07 08:35 | 2.73236 | 101.73295 | 466 ft | 154 kts | 325° |
| 2026-05-07 08:35 | 2.74074 | 101.72717 | 308 ft | 143 kts | 324° |
| 2026-05-07 08:35 | 2.74892 | 101.72170 | 140 ft | 141 kts | 326° |
| 2026-05-07 08:35 | 2.75687 | 101.71635 | 86 ft | 125 kts | 326° |
| 2026-05-07 08:36 | 2.76174 | 101.71311 | 66 ft | 49 kts | 326° |
| 2026-05-07 08:36 | 2.76436 | 101.71125 | 65 ft | 43 kts | 318° |
| 2026-05-07 08:36 | 2.76566 | 101.70953 | 64 ft | 25 kts | 296° |
| 2026-05-07 08:36 | 2.76564 | 101.70867 | 63 ft | 11 kts | 221° |
| 2026-05-07 08:37 | 2.76489 | 101.70875 | 63 ft | 12 kts | 153° |
| 2026-05-07 08:37 | 2.76414 | 101.70921 | 67 ft | 14 kts | 147° |
| 2026-05-07 08:37 | 2.76329 | 101.70977 | 62 ft | 16 kts | 148° |
| 2026-05-07 08:37 | 2.76232 | 101.71041 | 63 ft | 17 kts | 146° |
| 2026-05-07 08:38 | 2.76130 | 101.71110 | 69 ft | 18 kts | 147° |
| 2026-05-07 08:38 | 2.76023 | 101.71181 | 73 ft | 20 kts | 146° |
| 2026-05-07 08:38 | 2.75952 | 101.71228 | 66 ft | 17 kts | 146° |
| 2026-05-07 08:38 | 2.75818 | 101.71318 | 86 ft | 18 kts | 146° |
| 2026-05-07 08:39 | 2.75716 | 101.71379 | 84 ft | 14 kts | 163° |
| 2026-05-07 08:39 | 2.75631 | 101.71361 | 70 ft | 13 kts | 195° |
| 2026-05-07 08:39 | 2.75574 | 101.71371 | 68 ft | 13 kts | 151° |
| 2026-05-07 08:39 | 2.75504 | 101.71417 | 70 ft | 12 kts | 148° |
| 2026-05-07 08:40 | 2.75426 | 101.71458 | 69 ft | 10 kts | 175° |
| 2026-05-07 08:40 | 2.75365 | 101.71420 | 85 ft | 11 kts | 226° |
| 2026-05-07 08:40 | 2.75330 | 101.71348 | 84 ft | 12 kts | 268° |
| 2026-05-07 08:40 | 2.75354 | 101.71273 | 79 ft | 12 kts | 271° |
| 2026-05-07 08:41 | 2.75322 | 101.71191 | 84 ft | 14 kts | 238° |
| 2026-05-07 08:41 | 2.75260 | 101.71107 | 84 ft | 16 kts | 233° |
| 2026-05-07 08:41 | 2.75198 | 101.71013 | 85 ft | 17 kts | 234° |
| 2026-05-07 08:41 | 2.75132 | 101.70964 | 84 ft | 12 kts | 180° |
| 2026-05-07 08:42 | 2.75057 | 101.71002 | 84 ft | 13 kts | 146° |
| 2026-05-07 08:42 | 2.74977 | 101.71055 | 85 ft | 13 kts | 147° |
| 2026-05-07 08:42 | 2.74905 | 101.71102 | 85 ft | 13 kts | 147° |
| 2026-05-07 08:42 | 2.74850 | 101.71139 | 84 ft | 9 kts | 146° |
| 2026-05-07 08:43 | 2.74797 | 101.71174 | 85 ft | 7 kts | 146° |
| 2026-05-07 08:43 | 2.74777 | 101.71188 | 84 ft | 1 kts | 146° |
| 2026-05-07 08:43 | 2.74771 | 101.71193 | 83 ft | 1 kts | 146° |
| 2026-05-07 08:43 | 2.74770 | 101.71193 | 83 ft | 0 kts | 146° |